sensor_id;sensor_type;location;lat;lon;timestamp;temperature;humidity
2439;DHT22;14509;47.992;7.848;2022-12-18T00:00:18;1.10;47.90
2439;DHT22;14509;47.992;7.848;2022-12-18T00:02:20;1.00;47.80
2439;DHT22;14509;47.992;7.848;2022-12-18T00:04:24;1.00;48.00
2439;DHT22;14509;47.992;7.848;2022-12-18T00:06:29;0.90;48.00
2439;DHT22;14509;47.992;7.848;2022-12-18T00:08:31;1.10;48.00
2439;DHT22;14509;47.992;7.848;2022-12-18T00:10:34;0.70;47.60
2439;DHT22;14509;47.992;7.848;2022-12-18T00:12:36;0.60;47.40
2439;DHT22;14509;47.992;7.848;2022-12-18T00:14:38;0.50;47.60
2439;DHT22;14509;47.992;7.848;2022-12-18T00:16:40;0.10;47.30
2439;DHT22;14509;47.992;7.848;2022-12-18T00:18:44;0.20;47.40
2439;DHT22;14509;47.992;7.848;2022-12-18T00:20:47;0.00;47.50
2439;DHT22;14509;47.992;7.848;2022-12-18T00:22:49;-0.10;47.70
2439;DHT22;14509;47.992;7.848;2022-12-18T00:24:51;-0.10;47.90
2439;DHT22;14509;47.992;7.848;2022-12-18T00:26:53;-0.20;48.00
2439;DHT22;14509;47.992;7.848;2022-12-18T00:28:58;-0.30;48.30
2439;DHT22;14509;47.992;7.848;2022-12-18T00:31:00;-0.20;48.90
2439;DHT22;14509;47.992;7.848;2022-12-18T00:33:03;-0.20;49.20
2439;DHT22;14509;47.992;7.848;2022-12-18T00:35:05;-0.10;49.10
2439;DHT22;14509;47.992;7.848;2022-12-18T00:37:09;0.00;49.30
2439;DHT22;14509;47.992;7.848;2022-12-18T00:39:11;0.10;49.20
2439;DHT22;14509;47.992;7.848;2022-12-18T00:41:15;0.20;49.10
2439;DHT22;14509;47.992;7.848;2022-12-18T00:43:38;0.30;48.90
2439;DHT22;14509;47.992;7.848;2022-12-18T00:45:39;0.30;48.60
2439;DHT22;14509;47.992;7.848;2022-12-18T00:47:41;0.40;48.30
2439;DHT22;14509;47.992;7.848;2022-12-18T00:49:43;0.50;48.80
2439;DHT22;14509;47.992;7.848;2022-12-18T00:51:45;0.50;47.90
2439;DHT22;14509;47.992;7.848;2022-12-18T00:53:49;0.50;47.60
2439;DHT22;14509;47.992;7.848;2022-12-18T00:55:51;0.50;47.20
2439;DHT22;14509;47.992;7.848;2022-12-18T00:57:52;0.60;47.70
2439;DHT22;14509;47.992;7.848;2022-12-18T00:59:54;0.60;47.00
2439;DHT22;14509;47.992;7.848;2022-12-18T01:01:56;0.60;46.90
2439;DHT22;14509;47.992;7.848;2022-12-18T01:03:59;0.60;46.80
2439;DHT22;14509;47.992;7.848;2022-12-18T01:06:06;0.70;46.90
2439;DHT22;14509;47.992;7.848;2022-12-18T01:08:08;0.70;46.80
2439;DHT22;14509;47.992;7.848;2022-12-18T01:10:12;0.70;46.70
2439;DHT22;14509;47.992;7.848;2022-12-18T01:12:14;0.70;46.60
2439;DHT22;14509;47.992;7.848;2022-12-18T01:14:16;0.70;46.40
2439;DHT22;14509;47.992;7.848;2022-12-18T01:16:18;0.80;46.20
2439;DHT22;14509;47.992;7.848;2022-12-18T01:18:20;0.70;46.10
2439;DHT22;14509;47.992;7.848;2022-12-18T01:20:22;0.80;46.00
2439;DHT22;14509;47.992;7.848;2022-12-18T01:22:24;1.10;46.00
2439;DHT22;14509;47.992;7.848;2022-12-18T01:24:26;0.70;45.60
2439;DHT22;14509;47.992;7.848;2022-12-18T01:26:29;0.70;45.30
2439;DHT22;14509;47.992;7.848;2022-12-18T01:28:31;0.70;45.30
2439;DHT22;14509;47.992;7.848;2022-12-18T01:30:33;0.70;45.20
2439;DHT22;14509;47.992;7.848;2022-12-18T01:32:35;0.60;45.20
2439;DHT22;14509;47.992;7.848;2022-12-18T01:34:38;0.60;45.10
2439;DHT22;14509;47.992;7.848;2022-12-18T01:36:39;0.60;45.10
2439;DHT22;14509;47.992;7.848;2022-12-18T01:38:41;0.60;45.20
2439;DHT22;14509;47.992;7.848;2022-12-18T01:40:43;0.60;45.20
2439;DHT22;14509;47.992;7.848;2022-12-18T01:42:50;0.90;45.40
2439;DHT22;14509;47.992;7.848;2022-12-18T01:45:01;0.70;45.30
2439;DHT22;14509;47.992;7.848;2022-12-18T01:47:04;0.70;45.30
2439;DHT22;14509;47.992;7.848;2022-12-18T01:49:06;0.70;45.10
2439;DHT22;14509;47.992;7.848;2022-12-18T01:51:10;0.70;45.10
2439;DHT22;14509;47.992;7.848;2022-12-18T01:53:14;0.70;45.20
2439;DHT22;14509;47.992;7.848;2022-12-18T01:55:20;0.70;45.10
2439;DHT22;14509;47.992;7.848;2022-12-18T01:57:23;0.70;45.10
2439;DHT22;14509;47.992;7.848;2022-12-18T01:59:28;0.70;44.80
2439;DHT22;14509;47.992;7.848;2022-12-18T02:01:31;0.70;44.70
2439;DHT22;14509;47.992;7.848;2022-12-18T02:03:36;0.70;44.70
2439;DHT22;14509;47.992;7.848;2022-12-18T02:05:44;0.70;44.60
2439;DHT22;14509;47.992;7.848;2022-12-18T02:07:58;0.60;44.50
2439;DHT22;14509;47.992;7.848;2022-12-18T02:10:10;0.60;44.60
2439;DHT22;14509;47.992;7.848;2022-12-18T02:12:18;0.70;44.80
2439;DHT22;14509;47.992;7.848;2022-12-18T02:14:26;0.60;44.50
2439;DHT22;14509;47.992;7.848;2022-12-18T02:16:39;0.60;44.40
2439;DHT22;14509;47.992;7.848;2022-12-18T02:18:47;0.60;44.40
2439;DHT22;14509;47.992;7.848;2022-12-18T02:20:55;0.60;44.50
2439;DHT22;14509;47.992;7.848;2022-12-18T02:23:09;0.60;44.60
2439;DHT22;14509;47.992;7.848;2022-12-18T02:25:25;0.50;44.60
2439;DHT22;14509;47.992;7.848;2022-12-18T02:27:33;0.50;44.70
2439;DHT22;14509;47.992;7.848;2022-12-18T02:29:40;0.50;44.70
2439;DHT22;14509;47.992;7.848;2022-12-18T02:31:47;0.50;44.70
2439;DHT22;14509;47.992;7.848;2022-12-18T02:33:54;0.50;44.70
2439;DHT22;14509;47.992;7.848;2022-12-18T02:35:57;0.60;44.80
2439;DHT22;14509;47.992;7.848;2022-12-18T02:38:02;0.60;44.70
2439;DHT22;14509;47.992;7.848;2022-12-18T02:40:09;0.60;44.80
2439;DHT22;14509;47.992;7.848;2022-12-18T02:42:13;0.60;44.70
2439;DHT22;14509;47.992;7.848;2022-12-18T02:44:16;0.60;44.70
2439;DHT22;14509;47.992;7.848;2022-12-18T02:46:31;0.60;44.60
2439;DHT22;14509;47.992;7.848;2022-12-18T02:48:38;0.60;44.70
2439;DHT22;14509;47.992;7.848;2022-12-18T02:50:44;0.60;44.60
2439;DHT22;14509;47.992;7.848;2022-12-18T02:52:55;0.60;44.60
2439;DHT22;14509;47.992;7.848;2022-12-18T02:55:15;0.60;44.70
2439;DHT22;14509;47.992;7.848;2022-12-18T02:57:31;0.60;44.60
2439;DHT22;14509;47.992;7.848;2022-12-18T02:59:41;0.60;44.60
2439;DHT22;14509;47.992;7.848;2022-12-18T03:01:52;0.60;44.50
2439;DHT22;14509;47.992;7.848;2022-12-18T03:04:00;0.50;44.50
2439;DHT22;14509;47.992;7.848;2022-12-18T03:06:07;0.50;44.50
2439;DHT22;14509;47.992;7.848;2022-12-18T03:08:15;0.50;44.50
2439;DHT22;14509;47.992;7.848;2022-12-18T03:10:25;0.40;44.30
2439;DHT22;14509;47.992;7.848;2022-12-18T03:12:31;0.40;44.40
2439;DHT22;14509;47.992;7.848;2022-12-18T03:14:34;0.40;44.40
2439;DHT22;14509;47.992;7.848;2022-12-18T03:16:41;0.40;44.30
2439;DHT22;14509;47.992;7.848;2022-12-18T03:18:48;0.30;44.20
2439;DHT22;14509;47.992;7.848;2022-12-18T03:20:51;0.30;44.20
2439;DHT22;14509;47.992;7.848;2022-12-18T03:23:02;0.30;44.20
2439;DHT22;14509;47.992;7.848;2022-12-18T03:25:09;0.20;44.10
2439;DHT22;14509;47.992;7.848;2022-12-18T03:27:17;0.10;44.10
2439;DHT22;14509;47.992;7.848;2022-12-18T03:29:22;0.00;44.00
2439;DHT22;14509;47.992;7.848;2022-12-18T03:31:28;-0.10;44.10
2439;DHT22;14509;47.992;7.848;2022-12-18T03:33:37;-0.20;44.10
2439;DHT22;14509;47.992;7.848;2022-12-18T03:35:42;-0.30;44.20
2439;DHT22;14509;47.992;7.848;2022-12-18T03:37:46;-0.40;44.30
2439;DHT22;14509;47.992;7.848;2022-12-18T03:39:48;-0.60;44.30
2439;DHT22;14509;47.992;7.848;2022-12-18T03:41:54;-0.60;44.70
2439;DHT22;14509;47.992;7.848;2022-12-18T03:44:26;-0.70;44.90
2439;DHT22;14509;47.992;7.848;2022-12-18T03:46:33;-0.80;45.30
2439;DHT22;14509;47.992;7.848;2022-12-18T03:48:46;-0.50;45.90
2439;DHT22;14509;47.992;7.848;2022-12-18T03:50:56;0.10;46.40
2439;DHT22;14509;47.992;7.848;2022-12-18T03:53:08;-0.80;45.90
2439;DHT22;14509;47.992;7.848;2022-12-18T03:55:13;-0.80;46.00
2439;DHT22;14509;47.992;7.848;2022-12-18T03:57:20;-0.70;45.90
2439;DHT22;14509;47.992;7.848;2022-12-18T03:59:26;-0.60;46.00
2439;DHT22;14509;47.992;7.848;2022-12-18T04:01:32;-0.70;45.80
2439;DHT22;14509;47.992;7.848;2022-12-18T04:03:36;-0.70;45.70
2439;DHT22;14509;47.992;7.848;2022-12-18T04:05:43;-0.70;45.60
2439;DHT22;14509;47.992;7.848;2022-12-18T04:07:48;0.20;46.10
2439;DHT22;14509;47.992;7.848;2022-12-18T04:09:54;-1.00;45.80
2439;DHT22;14509;47.992;7.848;2022-12-18T04:11:58;-0.80;45.30
2439;DHT22;14509;47.992;7.848;2022-12-18T04:14:00;-0.80;45.10
2439;DHT22;14509;47.992;7.848;2022-12-18T04:16:02;-0.80;45.00
2439;DHT22;14509;47.992;7.848;2022-12-18T04:18:04;-0.90;44.90
2439;DHT22;14509;47.992;7.848;2022-12-18T04:20:16;-0.90;44.30
2439;DHT22;14509;47.992;7.848;2022-12-18T04:22:20;-1.00;44.70
2439;DHT22;14509;47.992;7.848;2022-12-18T04:24:28;-1.10;44.60
2439;DHT22;14509;47.992;7.848;2022-12-18T04:26:42;-1.20;44.50
2439;DHT22;14509;47.992;7.848;2022-12-18T04:28:49;-1.20;44.60
2439;DHT22;14509;47.992;7.848;2022-12-18T04:30:51;-1.30;44.70
2439;DHT22;14509;47.992;7.848;2022-12-18T04:32:55;-1.40;44.60
2439;DHT22;14509;47.992;7.848;2022-12-18T04:34:57;-1.40;44.70
2439;DHT22;14509;47.992;7.848;2022-12-18T04:36:59;-1.50;44.70
2439;DHT22;14509;47.992;7.848;2022-12-18T04:39:03;-1.60;44.70
2439;DHT22;14509;47.992;7.848;2022-12-18T04:41:05;-1.70;44.70
2439;DHT22;14509;47.992;7.848;2022-12-18T04:43:08;-1.80;44.70
2439;DHT22;14509;47.992;7.848;2022-12-18T04:45:10;-1.90;44.70
2439;DHT22;14509;47.992;7.848;2022-12-18T04:47:12;-1.90;44.80
2439;DHT22;14509;47.992;7.848;2022-12-18T04:49:14;-2.00;44.80
2439;DHT22;14509;47.992;7.848;2022-12-18T04:51:16;-2.60;44.50
2439;DHT22;14509;47.992;7.848;2022-12-18T04:53:18;-2.10;45.00
2439;DHT22;14509;47.992;7.848;2022-12-18T04:55:25;-2.10;45.00
2439;DHT22;14509;47.992;7.848;2022-12-18T04:57:27;-2.10;45.10
2439;DHT22;14509;47.992;7.848;2022-12-18T04:59:29;-2.20;45.10
2439;DHT22;14509;47.992;7.848;2022-12-18T05:01:31;-2.20;45.20
2439;DHT22;14509;47.992;7.848;2022-12-18T05:03:33;-2.20;45.20
2439;DHT22;14509;47.992;7.848;2022-12-18T05:05:36;-2.20;45.30
2439;DHT22;14509;47.992;7.848;2022-12-18T05:07:37;-2.30;45.20
2439;DHT22;14509;47.992;7.848;2022-12-18T05:09:39;-2.30;45.20
2439;DHT22;14509;47.992;7.848;2022-12-18T05:11:43;-2.30;45.40
2439;DHT22;14509;47.992;7.848;2022-12-18T05:13:45;-2.30;45.40
2439;DHT22;14509;47.992;7.848;2022-12-18T05:15:51;-2.30;45.50
2439;DHT22;14509;47.992;7.848;2022-12-18T05:17:53;-2.30;45.70
2439;DHT22;14509;47.992;7.848;2022-12-18T05:19:55;-2.40;45.60
2439;DHT22;14509;47.992;7.848;2022-12-18T05:21:57;-2.40;45.60
2439;DHT22;14509;47.992;7.848;2022-12-18T05:23:59;-2.40;45.40
2439;DHT22;14509;47.992;7.848;2022-12-18T05:26:02;-2.40;45.40
2439;DHT22;14509;47.992;7.848;2022-12-18T05:28:06;-2.40;45.50
2439;DHT22;14509;47.992;7.848;2022-12-18T05:30:09;-2.50;45.50
2439;DHT22;14509;47.992;7.848;2022-12-18T05:32:11;-2.50;45.70
2439;DHT22;14509;47.992;7.848;2022-12-18T05:34:13;-2.50;45.60
2439;DHT22;14509;47.992;7.848;2022-12-18T05:36:15;-2.50;45.70
2439;DHT22;14509;47.992;7.848;2022-12-18T05:38:17;-2.50;45.80
2439;DHT22;14509;47.992;7.848;2022-12-18T05:40:19;-2.60;45.70
2439;DHT22;14509;47.992;7.848;2022-12-18T05:42:21;-2.60;45.80
2439;DHT22;14509;47.992;7.848;2022-12-18T05:44:24;-2.60;45.80
2439;DHT22;14509;47.992;7.848;2022-12-18T05:46:26;-2.60;45.70
2439;DHT22;14509;47.992;7.848;2022-12-18T05:48:28;-2.60;45.70
2439;DHT22;14509;47.992;7.848;2022-12-18T05:50:30;-2.70;45.60
2439;DHT22;14509;47.992;7.848;2022-12-18T05:52:36;-2.70;45.70
2439;DHT22;14509;47.992;7.848;2022-12-18T05:54:38;-2.70;46.30
2439;DHT22;14509;47.992;7.848;2022-12-18T05:56:40;-2.70;45.80
2439;DHT22;14509;47.992;7.848;2022-12-18T05:58:42;-2.70;45.90
2439;DHT22;14509;47.992;7.848;2022-12-18T06:00:45;-2.70;46.00
2439;DHT22;14509;47.992;7.848;2022-12-18T06:02:47;-2.70;46.10
2439;DHT22;14509;47.992;7.848;2022-12-18T06:04:49;-2.70;46.10
2439;DHT22;14509;47.992;7.848;2022-12-18T06:06:51;-2.70;46.10
2439;DHT22;14509;47.992;7.848;2022-12-18T06:08:54;-2.70;46.00
2439;DHT22;14509;47.992;7.848;2022-12-18T06:10:57;-2.70;45.90
2439;DHT22;14509;47.992;7.848;2022-12-18T06:12:59;-2.70;45.90
2439;DHT22;14509;47.992;7.848;2022-12-18T06:15:01;-2.80;45.70
2439;DHT22;14509;47.992;7.848;2022-12-18T06:17:06;-2.80;45.70
2439;DHT22;14509;47.992;7.848;2022-12-18T06:19:12;-2.80;45.70
2439;DHT22;14509;47.992;7.848;2022-12-18T06:21:15;-2.80;45.70
2439;DHT22;14509;47.992;7.848;2022-12-18T06:23:17;-2.80;45.70
2439;DHT22;14509;47.992;7.848;2022-12-18T06:25:19;-2.80;45.80
2439;DHT22;14509;47.992;7.848;2022-12-18T06:27:21;-2.80;45.90
2439;DHT22;14509;47.992;7.848;2022-12-18T06:29:23;-2.80;46.00
2439;DHT22;14509;47.992;7.848;2022-12-18T06:31:25;-2.80;46.00
2439;DHT22;14509;47.992;7.848;2022-12-18T06:33:29;-2.80;46.00
2439;DHT22;14509;47.992;7.848;2022-12-18T06:35:31;-2.80;46.20
2439;DHT22;14509;47.992;7.848;2022-12-18T06:37:33;-2.80;46.30
2439;DHT22;14509;47.992;7.848;2022-12-18T06:39:35;-2.70;46.50
2439;DHT22;14509;47.992;7.848;2022-12-18T06:41:37;-2.60;46.60
2439;DHT22;14509;47.992;7.848;2022-12-18T06:43:39;-2.60;46.60
2439;DHT22;14509;47.992;7.848;2022-12-18T06:45:41;-2.60;46.50
2439;DHT22;14509;47.992;7.848;2022-12-18T06:47:43;-2.50;46.50
2439;DHT22;14509;47.992;7.848;2022-12-18T06:49:47;-2.50;46.40
2439;DHT22;14509;47.992;7.848;2022-12-18T06:51:48;-2.50;46.30
2439;DHT22;14509;47.992;7.848;2022-12-18T06:53:50;-2.50;46.20
2439;DHT22;14509;47.992;7.848;2022-12-18T06:55:52;-2.40;46.10
2439;DHT22;14509;47.992;7.848;2022-12-18T06:57:54;-2.40;46.00
2439;DHT22;14509;47.992;7.848;2022-12-18T06:59:56;-2.50;45.90
2439;DHT22;14509;47.992;7.848;2022-12-18T07:01:58;-2.50;45.90
2439;DHT22;14509;47.992;7.848;2022-12-18T07:04:00;-2.50;45.90
2439;DHT22;14509;47.992;7.848;2022-12-18T07:06:04;-2.50;45.90
2439;DHT22;14509;47.992;7.848;2022-12-18T07:08:06;-2.50;46.00
2439;DHT22;14509;47.992;7.848;2022-12-18T07:10:09;-2.50;46.00
2439;DHT22;14509;47.992;7.848;2022-12-18T07:12:11;-2.50;46.00
2439;DHT22;14509;47.992;7.848;2022-12-18T07:14:13;-2.50;46.10
2439;DHT22;14509;47.992;7.848;2022-12-18T07:16:16;-2.50;46.10
2439;DHT22;14509;47.992;7.848;2022-12-18T07:18:18;-2.50;46.20
2439;DHT22;14509;47.992;7.848;2022-12-18T07:20:20;-2.50;46.20
2439;DHT22;14509;47.992;7.848;2022-12-18T07:22:25;-2.50;46.30
2439;DHT22;14509;47.992;7.848;2022-12-18T07:24:27;-2.50;46.30
2439;DHT22;14509;47.992;7.848;2022-12-18T07:26:29;-2.50;46.30
2439;DHT22;14509;47.992;7.848;2022-12-18T07:28:31;-2.50;46.20
2439;DHT22;14509;47.992;7.848;2022-12-18T07:30:33;-2.60;46.20
2439;DHT22;14509;47.992;7.848;2022-12-18T07:32:35;-2.60;46.10
2439;DHT22;14509;47.992;7.848;2022-12-18T07:34:36;-2.50;46.20
2439;DHT22;14509;47.992;7.848;2022-12-18T07:36:38;-2.20;46.40
2439;DHT22;14509;47.992;7.848;2022-12-18T07:38:42;-2.50;46.10
2439;DHT22;14509;47.992;7.848;2022-12-18T07:40:44;-2.50;46.10
2439;DHT22;14509;47.992;7.848;2022-12-18T07:42:46;-2.50;46.70
2439;DHT22;14509;47.992;7.848;2022-12-18T07:44:48;-2.50;46.20
2439;DHT22;14509;47.992;7.848;2022-12-18T07:46:50;-2.40;46.20
2439;DHT22;14509;47.992;7.848;2022-12-18T07:48:52;-2.40;46.20
2439;DHT22;14509;47.992;7.848;2022-12-18T07:50:57;-2.40;46.10
2439;DHT22;14509;47.992;7.848;2022-12-18T07:52:59;-2.40;46.10
2439;DHT22;14509;47.992;7.848;2022-12-18T07:55:06;-2.40;46.00
2439;DHT22;14509;47.992;7.848;2022-12-18T07:57:08;-2.40;46.00
2439;DHT22;14509;47.992;7.848;2022-12-18T07:59:10;-2.30;46.20
2439;DHT22;14509;47.992;7.848;2022-12-18T08:01:12;-2.30;46.20
2439;DHT22;14509;47.992;7.848;2022-12-18T08:03:14;-2.30;46.10
2439;DHT22;14509;47.992;7.848;2022-12-18T08:05:17;-2.20;46.10
2439;DHT22;14509;47.992;7.848;2022-12-18T08:07:19;-2.00;46.30
2439;DHT22;14509;47.992;7.848;2022-12-18T08:09:21;-2.20;46.10
2439;DHT22;14509;47.992;7.848;2022-12-18T08:11:25;-2.10;46.10
2439;DHT22;14509;47.992;7.848;2022-12-18T08:13:28;-2.10;46.10
2439;DHT22;14509;47.992;7.848;2022-12-18T08:15:29;-2.10;46.00
2439;DHT22;14509;47.992;7.848;2022-12-18T08:17:31;-2.00;46.00
2439;DHT22;14509;47.992;7.848;2022-12-18T08:19:33;-2.00;46.00
2439;DHT22;14509;47.992;7.848;2022-12-18T08:21:35;-2.00;46.00
2439;DHT22;14509;47.992;7.848;2022-12-18T08:23:38;-1.90;46.10
2439;DHT22;14509;47.992;7.848;2022-12-18T08:25:41;-1.80;46.20
2439;DHT22;14509;47.992;7.848;2022-12-18T08:27:44;-1.80;46.10
2439;DHT22;14509;47.992;7.848;2022-12-18T08:29:46;-1.80;46.10
2439;DHT22;14509;47.992;7.848;2022-12-18T08:31:48;-1.70;46.20
2439;DHT22;14509;47.992;7.848;2022-12-18T08:33:50;-1.60;46.20
2439;DHT22;14509;47.992;7.848;2022-12-18T08:35:53;-1.50;46.30
2439;DHT22;14509;47.992;7.848;2022-12-18T08:37:55;-1.50;46.20
2439;DHT22;14509;47.992;7.848;2022-12-18T08:39:57;-1.40;46.20
2439;DHT22;14509;47.992;7.848;2022-12-18T08:41:59;-1.40;46.10
2439;DHT22;14509;47.992;7.848;2022-12-18T08:44:20;-1.40;46.00
2439;DHT22;14509;47.992;7.848;2022-12-18T08:46:43;-1.30;46.10
2439;DHT22;14509;47.992;7.848;2022-12-18T08:48:46;-1.20;46.10
2439;DHT22;14509;47.992;7.848;2022-12-18T08:50:54;-1.20;46.00
2439;DHT22;14509;47.992;7.848;2022-12-18T08:52:56;-1.10;46.00
2439;DHT22;14509;47.992;7.848;2022-12-18T08:54:58;-0.90;46.10
2439;DHT22;14509;47.992;7.848;2022-12-18T08:57:00;-0.90;46.10
2439;DHT22;14509;47.992;7.848;2022-12-18T08:59:02;-0.90;46.00
2439;DHT22;14509;47.992;7.848;2022-12-18T09:01:08;-0.80;46.10
2439;DHT22;14509;47.992;7.848;2022-12-18T09:03:12;-0.70;46.10
2439;DHT22;14509;47.992;7.848;2022-12-18T09:05:14;-0.60;46.10
2439;DHT22;14509;47.992;7.848;2022-12-18T09:07:16;-0.50;46.10
2439;DHT22;14509;47.992;7.848;2022-12-18T09:09:19;-0.40;46.00
2439;DHT22;14509;47.992;7.848;2022-12-18T09:11:22;-0.30;45.90
2439;DHT22;14509;47.992;7.848;2022-12-18T09:13:25;-0.20;46.60
2439;DHT22;14509;47.992;7.848;2022-12-18T09:15:27;-0.20;46.00
2439;DHT22;14509;47.992;7.848;2022-12-18T09:17:30;-0.10;46.00
2439;DHT22;14509;47.992;7.848;2022-12-18T09:19:32;0.10;46.10
2439;DHT22;14509;47.992;7.848;2022-12-18T09:21:35;0.10;46.10
2439;DHT22;14509;47.992;7.848;2022-12-18T09:23:37;0.20;45.90
2439;DHT22;14509;47.992;7.848;2022-12-18T09:25:40;0.20;45.60
2439;DHT22;14509;47.992;7.848;2022-12-18T09:27:42;0.30;45.60
2439;DHT22;14509;47.992;7.848;2022-12-18T09:29:44;0.30;46.10
2439;DHT22;14509;47.992;7.848;2022-12-18T09:31:46;0.50;45.50
2439;DHT22;14509;47.992;7.848;2022-12-18T09:36:01;0.50;45.50
2439;DHT22;14509;47.992;7.848;2022-12-18T09:38:03;0.90;45.80
2439;DHT22;14509;47.992;7.848;2022-12-18T09:40:09;0.60;45.50
2439;DHT22;14509;47.992;7.848;2022-12-18T09:42:19;0.70;45.70
2439;DHT22;14509;47.992;7.848;2022-12-18T09:44:26;0.70;45.70
2439;DHT22;14509;47.992;7.848;2022-12-18T09:46:32;0.80;45.70
2439;DHT22;14509;47.992;7.848;2022-12-18T09:48:37;0.90;45.60
2439;DHT22;14509;47.992;7.848;2022-12-18T09:50:41;1.00;45.60
2439;DHT22;14509;47.992;7.848;2022-12-18T09:52:48;1.00;45.40
2439;DHT22;14509;47.992;7.848;2022-12-18T09:54:56;2.10;46.30
2439;DHT22;14509;47.992;7.848;2022-12-18T09:57:02;1.90;45.90
2439;DHT22;14509;47.992;7.848;2022-12-18T09:59:04;1.20;45.20
2439;DHT22;14509;47.992;7.848;2022-12-18T10:01:09;1.20;45.00
2439;DHT22;14509;47.992;7.848;2022-12-18T10:03:13;1.40;45.30
2439;DHT22;14509;47.992;7.848;2022-12-18T10:05:17;1.40;45.30
2439;DHT22;14509;47.992;7.848;2022-12-18T10:07:26;1.50;45.30
2439;DHT22;14509;47.992;7.848;2022-12-18T10:09:35;2.20;45.70
2439;DHT22;14509;47.992;7.848;2022-12-18T10:11:46;1.70;45.10
2439;DHT22;14509;47.992;7.848;2022-12-18T10:13:53;3.30;46.10
2439;DHT22;14509;47.992;7.848;2022-12-18T10:16:07;1.90;45.60
2439;DHT22;14509;47.992;7.848;2022-12-18T10:18:22;2.20;44.90
2439;DHT22;14509;47.992;7.848;2022-12-18T10:20:32;2.60;45.60
2439;DHT22;14509;47.992;7.848;2022-12-18T10:22:48;2.20;44.40
2439;DHT22;14509;47.992;7.848;2022-12-18T10:25:01;2.40;44.50
2439;DHT22;14509;47.992;7.848;2022-12-18T10:27:12;2.40;44.40
2439;DHT22;14509;47.992;7.848;2022-12-18T10:29:16;2.50;44.30
2439;DHT22;14509;47.992;7.848;2022-12-18T10:31:20;2.60;44.30
2439;DHT22;14509;47.992;7.848;2022-12-18T10:33:24;2.70;44.30
2439;DHT22;14509;47.992;7.848;2022-12-18T10:35:27;2.90;44.50
2439;DHT22;14509;47.992;7.848;2022-12-18T10:37:29;2.80;44.40
2439;DHT22;14509;47.992;7.848;2022-12-18T10:39:33;2.70;44.40
2439;DHT22;14509;47.992;7.848;2022-12-18T10:41:36;3.00;44.70
2439;DHT22;14509;47.992;7.848;2022-12-18T10:43:39;3.00;44.70
2439;DHT22;14509;47.992;7.848;2022-12-18T10:45:42;3.10;44.90
2439;DHT22;14509;47.992;7.848;2022-12-18T10:47:59;3.20;45.10
2439;DHT22;14509;47.992;7.848;2022-12-18T10:50:01;3.30;45.20
2439;DHT22;14509;47.992;7.848;2022-12-18T10:52:14;3.40;45.20
2439;DHT22;14509;47.992;7.848;2022-12-18T10:54:18;3.50;45.20
2439;DHT22;14509;47.992;7.848;2022-12-18T10:56:21;3.70;45.10
2439;DHT22;14509;47.992;7.848;2022-12-18T10:58:27;3.90;45.00
2439;DHT22;14509;47.992;7.848;2022-12-18T11:00:30;3.90;44.70
2439;DHT22;14509;47.992;7.848;2022-12-18T11:02:34;4.30;44.60
2439;DHT22;14509;47.992;7.848;2022-12-18T11:04:50;4.10;44.10
2439;DHT22;14509;47.992;7.848;2022-12-18T11:06:55;4.20;43.80
2439;DHT22;14509;47.992;7.848;2022-12-18T11:08:59;4.20;43.50
2439;DHT22;14509;47.992;7.848;2022-12-18T11:11:02;4.30;43.40
2439;DHT22;14509;47.992;7.848;2022-12-18T11:13:10;4.30;43.40
2439;DHT22;14509;47.992;7.848;2022-12-18T11:15:20;4.20;43.30
2439;DHT22;14509;47.992;7.848;2022-12-18T11:17:29;4.20;42.90
2439;DHT22;14509;47.992;7.848;2022-12-18T11:19:36;4.10;42.60
2439;DHT22;14509;47.992;7.848;2022-12-18T11:21:39;4.10;42.60
2439;DHT22;14509;47.992;7.848;2022-12-18T11:23:47;4.00;42.50
2439;DHT22;14509;47.992;7.848;2022-12-18T11:25:55;3.90;42.50
2439;DHT22;14509;47.992;7.848;2022-12-18T11:28:00;3.90;42.70
2439;DHT22;14509;47.992;7.848;2022-12-18T11:30:09;3.80;43.00
2439;DHT22;14509;47.992;7.848;2022-12-18T11:32:27;3.70;43.20
2439;DHT22;14509;47.992;7.848;2022-12-18T11:34:32;3.70;43.10
2439;DHT22;14509;47.992;7.848;2022-12-18T11:36:37;3.80;43.30
2439;DHT22;14509;47.992;7.848;2022-12-18T11:38:42;3.60;43.50
2439;DHT22;14509;47.992;7.848;2022-12-18T11:40:50;3.60;43.60
2439;DHT22;14509;47.992;7.848;2022-12-18T11:42:58;4.10;44.00
2439;DHT22;14509;47.992;7.848;2022-12-18T11:45:18;3.90;43.90
2439;DHT22;14509;47.992;7.848;2022-12-18T11:47:28;3.60;44.10
2439;DHT22;14509;47.992;7.848;2022-12-18T11:49:34;3.70;44.40
2439;DHT22;14509;47.992;7.848;2022-12-18T11:51:41;3.90;44.70
2439;DHT22;14509;47.992;7.848;2022-12-18T11:53:45;3.90;44.70
2439;DHT22;14509;47.992;7.848;2022-12-18T11:55:56;4.00;44.70
2439;DHT22;14509;47.992;7.848;2022-12-18T11:58:07;4.20;44.90
2439;DHT22;14509;47.992;7.848;2022-12-18T12:00:15;4.30;44.50
2439;DHT22;14509;47.992;7.848;2022-12-18T12:02:38;4.50;44.70
2439;DHT22;14509;47.992;7.848;2022-12-18T12:04:56;4.70;44.40
2439;DHT22;14509;47.992;7.848;2022-12-18T12:07:07;4.80;44.30
2439;DHT22;14509;47.992;7.848;2022-12-18T12:09:19;4.90;44.10
2439;DHT22;14509;47.992;7.848;2022-12-18T12:11:32;5.20;44.30
2439;DHT22;14509;47.992;7.848;2022-12-18T12:13:43;5.00;44.00
2439;DHT22;14509;47.992;7.848;2022-12-18T12:15:55;5.20;44.00
2439;DHT22;14509;47.992;7.848;2022-12-18T12:18:06;5.10;43.80
2439;DHT22;14509;47.992;7.848;2022-12-18T12:20:17;5.40;43.80
2439;DHT22;14509;47.992;7.848;2022-12-18T12:22:28;5.20;43.50
2439;DHT22;14509;47.992;7.848;2022-12-18T12:24:44;5.20;43.50
2439;DHT22;14509;47.992;7.848;2022-12-18T12:26:55;5.20;43.50
2439;DHT22;14509;47.992;7.848;2022-12-18T12:29:13;5.20;43.30
2439;DHT22;14509;47.992;7.848;2022-12-18T12:31:25;5.20;43.30
2439;DHT22;14509;47.992;7.848;2022-12-18T12:33:37;5.20;43.20
2439;DHT22;14509;47.992;7.848;2022-12-18T12:35:47;5.10;43.30
2439;DHT22;14509;47.992;7.848;2022-12-18T12:38:04;5.10;43.50
2439;DHT22;14509;47.992;7.848;2022-12-18T12:40:07;5.10;43.70
2439;DHT22;14509;47.992;7.848;2022-12-18T12:42:15;5.10;43.90
2439;DHT22;14509;47.992;7.848;2022-12-18T12:44:40;5.20;44.10
2439;DHT22;14509;47.992;7.848;2022-12-18T12:46:45;5.00;43.90
2439;DHT22;14509;47.992;7.848;2022-12-18T12:48:52;5.30;44.10
2439;DHT22;14509;47.992;7.848;2022-12-18T12:50:56;5.30;44.00
2439;DHT22;14509;47.992;7.848;2022-12-18T12:52:59;5.30;44.00
2439;DHT22;14509;47.992;7.848;2022-12-18T12:55:06;5.20;43.70
2439;DHT22;14509;47.992;7.848;2022-12-18T12:57:12;5.20;43.70
2439;DHT22;14509;47.992;7.848;2022-12-18T12:59:26;5.10;43.80
2439;DHT22;14509;47.992;7.848;2022-12-18T13:01:36;5.10;43.60
2439;DHT22;14509;47.992;7.848;2022-12-18T13:03:48;5.10;43.70
2439;DHT22;14509;47.992;7.848;2022-12-18T13:05:58;5.10;43.90
2439;DHT22;14509;47.992;7.848;2022-12-18T13:08:03;5.20;44.10
2439;DHT22;14509;47.992;7.848;2022-12-18T13:10:26;5.20;44.20
2439;DHT22;14509;47.992;7.848;2022-12-18T13:12:28;5.20;44.30
2439;DHT22;14509;47.992;7.848;2022-12-18T13:14:48;5.30;44.30
2439;DHT22;14509;47.992;7.848;2022-12-18T13:16:50;5.30;44.30
2439;DHT22;14509;47.992;7.848;2022-12-18T13:18:53;5.30;44.30
2439;DHT22;14509;47.992;7.848;2022-12-18T13:21:08;5.70;44.60
2439;DHT22;14509;47.992;7.848;2022-12-18T13:23:27;5.40;44.30
2439;DHT22;14509;47.992;7.848;2022-12-18T13:25:33;5.50;44.40
2439;DHT22;14509;47.992;7.848;2022-12-18T13:27:55;5.60;44.20
2439;DHT22;14509;47.992;7.848;2022-12-18T13:29:58;5.50;43.90
2439;DHT22;14509;47.992;7.848;2022-12-18T13:32:01;5.40;43.50
2439;DHT22;14509;47.992;7.848;2022-12-18T13:34:15;5.50;43.60